Time;durP1;ratioP1;P1;durP2;ratioP2;P2;SDS_P1;SDS_P2;PMS_P1;PMS_P2;Temp;Humidity;BMP_temperature;BMP_pressure;BME280_temperature;BME280_humidity;BME280_pressure;Samples;Min_cycle;Max_cycle;Signal;HPM_P1;HPM_P2
2022/05/20 00:00:35;;;;;;;6.05;2.72;;;;;;;;;;10345606;28;20269;-75
2022/05/20 00:05:38;;;;;;;5.65;2.28;;;;;;;;;;10360007;28;20065;-74
2022/05/20 00:10:43;;;;;;;3.05;2.08;;;;;;;;;;10351979;28;20041;-75
2022/05/20 00:15:45;;;;;;;6.90;2.60;;;;;;;;;;10330144;28;20054;-73
2022/05/20 00:20:48;;;;;;;5.07;1.92;;;;;;;;;;10345660;28;20148;-76
2022/05/20 00:25:53;;;;;;;3.15;1.38;;;;;;;;;;10371587;28;20040;-75
2022/05/20 00:30:57;;;;;;;6.55;2.70;;;;;;;;;;10371918;28;20069;-72
2022/05/20 00:36:00;;;;;;;6.07;2.70;;;;;;;;;;10359202;28;20034;-74
2022/05/20 00:41:04;;;;;;;6.28;2.45;;;;;;;;;;10366453;28;20038;-75
2022/05/20 00:46:07;;;;;;;3.47;2.25;;;;;;;;;;10343073;28;20073;-75
2022/05/20 00:51:12;;;;;;;6.25;1.73;;;;;;;;;;10337756;28;20326;-75
2022/05/20 00:56:20;;;;;;;2.70;2.05;;;;;;;;;;10359963;28;20056;-76
2022/05/20 01:01:23;;;;;;;3.50;2.15;;;;;;;;;;10363449;28;20486;-75
2022/05/20 01:06:27;;;;;;;3.15;2.22;;;;;;;;;;10361411;28;20116;-74
2022/05/20 01:11:32;;;;;;;7.45;2.55;;;;;;;;;;10362071;28;20358;-74
2022/05/20 01:16:41;;;;;;;6.18;2.63;;;;;;;;;;10341235;28;20037;-76
2022/05/20 01:21:45;;;;;;;5.45;2.70;;;;;;;;;;10360791;28;20443;-75
2022/05/20 01:26:50;;;;;;;4.65;2.70;;;;;;;;;;10333610;28;20041;-75
2022/05/20 01:31:53;;;;;;;3.28;1.65;;;;;;;;;;10352673;28;20523;-75
2022/05/20 01:37:03;;;;;;;4.45;2.88;;;;;;;;;;10345507;28;20034;-74
2022/05/20 01:42:11;;;;;;;3.60;1.92;;;;;;;;;;10368896;28;20045;-74
2022/05/20 01:47:17;;;;;;;4.00;2.53;;;;;;;;;;10360063;28;20037;-76
2022/05/20 01:52:24;;;;;;;2.45;1.63;;;;;;;;;;10352163;28;20073;-74
2022/05/20 01:57:31;;;;;;;4.15;2.30;;;;;;;;;;10353145;28;20072;-73
2022/05/20 02:02:38;;;;;;;4.50;2.30;;;;;;;;;;10362858;28;20412;-75
2022/05/20 02:07:42;;;;;;;3.60;1.52;;;;;;;;;;10365945;28;20402;-76
2022/05/20 02:12:49;;;;;;;1.45;1.13;;;;;;;;;;10361334;28;20168;-75
2022/05/20 02:17:54;;;;;;;3.42;1.77;;;;;;;;;;10369762;28;20108;-76
2022/05/20 02:22:59;;;;;;;5.82;1.65;;;;;;;;;;10341944;28;20498;-73
2022/05/20 02:28:07;;;;;;;3.22;1.95;;;;;;;;;;10374276;28;20030;-76
2022/05/20 02:33:11;;;;;;;5.18;2.10;;;;;;;;;;10343100;28;20065;-76
2022/05/20 02:38:16;;;;;;;3.38;2.28;;;;;;;;;;10367922;28;20117;-76
2022/05/20 02:43:21;;;;;;;3.47;1.63;;;;;;;;;;10343570;28;20475;-74
2022/05/20 02:48:25;;;;;;;1.83;1.35;;;;;;;;;;10370495;28;20036;-77
2022/05/20 02:53:28;;;;;;;3.10;1.88;;;;;;;;;;10369468;28;20034;-73
2022/05/20 03:04:10;;;;;;;4.57;2.20;;;;;;;;;;10365247;28;20046;-76
2022/05/20 03:09:14;;;;;;;2.47;1.67;;;;;;;;;;10365422;28;20457;-76
2022/05/20 03:14:19;;;;;;;2.38;1.95;;;;;;;;;;10359195;28;20050;-76
2022/05/20 03:19:22;;;;;;;2.50;1.80;;;;;;;;;;10363971;28;20742;-74
2022/05/20 03:24:26;;;;;;;2.95;1.50;;;;;;;;;;10353491;28;20048;-75
2022/05/20 03:29:32;;;;;;;4.18;2.40;;;;;;;;;;10356809;28;20081;-71
2022/05/20 03:34:34;;;;;;;4.18;2.17;;;;;;;;;;10367237;28;20569;-75
2022/05/20 03:39:37;;;;;;;5.07;2.13;;;;;;;;;;10339662;28;20599;-76
2022/05/20 03:44:41;;;;;;;6.97;2.40;;;;;;;;;;10347399;28;20388;-75
2022/05/20 03:49:45;;;;;;;4.45;2.00;;;;;;;;;;10344657;28;20431;-73
2022/05/20 03:54:47;;;;;;;5.22;2.45;;;;;;;;;;10359331;28;20529;-76
2022/05/20 03:59:51;;;;;;;6.20;2.30;;;;;;;;;;10339618;28;20440;-76
2022/05/20 04:04:55;;;;;;;3.88;2.28;;;;;;;;;;10358418;28;20045;-77
2022/05/20 04:09:58;;;;;;;7.45;2.15;;;;;;;;;;10339510;28;20073;-75
2022/05/20 04:15:03;;;;;;;2.03;1.30;;;;;;;;;;10357214;28;20073;-77
2022/05/20 04:20:07;;;;;;;4.15;2.20;;;;;;;;;;10358836;28;20089;-78
2022/05/20 04:25:11;;;;;;;3.95;2.00;;;;;;;;;;10343269;28;20069;-78
2022/05/20 04:30:16;;;;;;;2.78;1.40;;;;;;;;;;10341724;28;20447;-77
2022/05/20 04:35:18;;;;;;;2.67;1.92;;;;;;;;;;10360690;28;20070;-76
2022/05/20 04:40:21;;;;;;;4.23;2.17;;;;;;;;;;10356179;28;20484;-75
2022/05/20 04:50:46;;;;;;;3.28;1.92;;;;;;;;;;10338816;28;20030;-76
2022/05/20 04:55:48;;;;;;;3.23;2.27;;;;;;;;;;10336016;28;20073;-74
2022/05/20 05:00:55;;;;;;;3.35;2.13;;;;;;;;;;10364901;28;20050;-75
2022/05/20 05:05:59;;;;;;;5.70;2.40;;;;;;;;;;10338670;28;20065;-76
2022/05/20 05:11:03;;;;;;;2.72;1.73;;;;;;;;;;10356645;28;20053;-75
2022/05/20 05:16:08;;;;;;;5.88;2.35;;;;;;;;;;10362085;28;20600;-78
2022/05/20 05:21:13;;;;;;;4.38;2.20;;;;;;;;;;10340509;28;20109;-75
2022/05/20 05:26:17;;;;;;;4.43;2.20;;;;;;;;;;10360016;28;20079;-79
2022/05/20 05:31:21;;;;;;;2.50;1.45;;;;;;;;;;10351190;28;20514;-79
2022/05/20 05:36:24;;;;;;;7.22;2.38;;;;;;;;;;10364883;28;20036;-76
2022/05/20 05:41:27;;;;;;;6.82;2.42;;;;;;;;;;10339353;28;20132;-75
2022/05/20 05:46:32;;;;;;;3.20;2.03;;;;;;;;;;10348784;28;20108;-74
2022/05/20 05:51:36;;;;;;;6.32;2.13;;;;;;;;;;10366407;28;20229;-74
2022/05/20 05:56:38;;;;;;;4.43;2.30;;;;;;;;;;10347249;28;20103;-71
2022/05/20 06:01:43;;;;;;;5.63;2.38;;;;;;;;;;10338666;28;20038;-76
2022/05/20 06:06:45;;;;;;;4.43;2.20;;;;;;;;;;10336135;28;20042;-73
2022/05/20 06:11:49;;;;;;;;;;;;;;;;;;10337570;28;20042;-75
2022/05/20 06:16:53;;;;;;;2.25;1.35;;;;;;;;;;10359153;28;20412;-74
2022/05/20 06:21:56;;;;;;;5.78;2.50;;;;;;;;;;10355183;28;20107;-75
2022/05/20 06:27:00;;;;;;;4.35;2.28;;;;;;;;;;10340664;28;20045;-75
2022/05/20 06:32:05;;;;;;;3.35;2.30;;;;;;;;;;10362695;28;20042;-74
2022/05/20 06:42:29;;;;;;;3.63;2.40;;;;;;;;;;10366081;28;20498;-76
2022/05/20 06:47:33;;;;;;;6.28;2.45;;;;;;;;;;10362975;28;20046;-73
2022/05/20 06:52:37;;;;;;;5.35;2.35;;;;;;;;;;10351071;28;20129;-73
2022/05/20 06:57:41;;;;;;;4.25;2.17;;;;;;;;;;10363500;28;20053;-75
2022/05/20 07:02:44;;;;;;;;;;;;;;;;;;10355137;28;20045;-75
2022/05/20 07:07:48;;;;;;;1.80;1.45;;;;;;;;;;10350209;28;20283;-76
2022/05/20 07:12:51;;;;;;;4.60;2.13;;;;;;;;;;10355351;28;20042;-75
2022/05/20 07:17:54;;;;;;;4.28;2.50;;;;;;;;;;10344373;28;20123;-74
2022/05/20 07:22:58;;;;;;;1.90;1.73;;;;;;;;;;10360645;28;20046;-74
2022/05/20 07:28:01;;;;;;;3.17;2.30;;;;;;;;;;10377486;28;20040;-74
2022/05/20 07:33:06;;;;;;;4.43;2.50;;;;;;;;;;10338243;28;20097;-74
2022/05/20 07:38:10;;;;;;;6.28;3.03;;;;;;;;;;10360531;28;20129;-75
2022/05/20 07:43:14;;;;;;;4.20;2.65;;;;;;;;;;10362444;28;20426;-74
2022/05/20 07:48:17;;;;;;;2.53;2.33;;;;;;;;;;10343093;28;20036;-75
2022/05/20 07:53:23;;;;;;;2.83;2.35;;;;;;;;;;10344474;28;20118;-75
2022/05/20 07:58:28;;;;;;;4.75;2.75;;;;;;;;;;10347499;28;20033;-76
2022/05/20 08:09:20;;;;;;;4.32;3.17;;;;;;;;;;10346494;28;20502;-74
2022/05/20 08:14:23;;;;;;;7.28;3.78;;;;;;;;;;10359380;28;20509;-76
2022/05/20 08:19:26;;;;;;;6.40;2.78;;;;;;;;;;10345102;28;20087;-76
2022/05/20 08:24:30;;;;;;;6.03;2.70;;;;;;;;;;10353098;28;20030;-74
2022/05/20 08:29:33;;;;;;;4.57;3.08;;;;;;;;;;10362954;28;20043;-71
2022/05/20 08:34:36;;;;;;;4.78;2.72;;;;;;;;;;10360930;28;20129;-75
2022/05/20 08:39:43;;;;;;;3.13;2.80;;;;;;;;;;10352777;28;20033;-75
2022/05/20 08:44:47;;;;;;;4.72;2.88;;;;;;;;;;10344101;28;20038;-76
2022/05/20 08:49:50;;;;;;;3.20;2.90;;;;;;;;;;10341128;28;20088;-75
2022/05/20 08:54:54;;;;;;;4.28;2.90;;;;;;;;;;10358034;28;20442;-76
2022/05/20 09:00:14;;;;;;;3.58;2.90;;;;;;;;;;10365039;28;20065;-76
2022/05/20 09:05:19;;;;;;;5.63;3.90;;;;;;;;;;10360366;28;20073;-73
2022/05/20 09:10:30;;;;;;;4.85;3.13;;;;;;;;;;10353839;28;20041;-74
2022/05/20 09:15:46;;;;;;;7.78;3.15;;;;;;;;;;10357947;28;20041;-75
2022/05/20 09:20:50;;;;;;;5.45;3.38;;;;;;;;;;10349516;28;20045;-74
2022/05/20 09:26:01;;;;;;;3.80;3.33;;;;;;;;;;10358818;28;20034;-74
2022/05/20 09:31:17;;;;;;;3.90;3.60;;;;;;;;;;10364130;28;20034;-76
2022/05/20 09:36:33;;;;;;;6.18;3.50;;;;;;;;;;10347828;28;20422;-75
2022/05/20 09:41:44;;;;;;;4.43;3.65;;;;;;;;;;10336077;28;20451;-75
2022/05/20 09:46:51;;;;;;;8.18;3.83;;;;;;;;;;10353867;28;20525;-76
2022/05/20 09:51:56;;;;;;;11.30;4.28;;;;;;;;;;10340542;28;20381;-76
2022/05/20 09:57:04;;;;;;;4.15;3.22;;;;;;;;;;10341083;28;20045;-75
2022/05/20 10:02:10;;;;;;;5.25;3.83;;;;;;;;;;10363447;28;20116;-74
2022/05/20 10:07:15;;;;;;;5.85;3.88;;;;;;;;;;10367175;28;20114;-74
2022/05/20 10:12:24;;;;;;;6.65;4.03;;;;;;;;;;10351025;28;20038;-74
2022/05/20 10:17:32;;;;;;;5.50;4.05;;;;;;;;;;10369734;28;20042;-75
2022/05/20 10:22:42;;;;;;;6.10;3.67;;;;;;;;;;10353234;28;20068;-74
2022/05/20 10:27:51;;;;;;;4.22;3.55;;;;;;;;;;10359709;28;20048;-76
2022/05/20 10:32:57;;;;;;;6.75;3.88;;;;;;;;;;10363753;28;20041;-76
2022/05/20 10:38:06;;;;;;;8.07;3.88;;;;;;;;;;10347014;28;20041;-76
2022/05/20 10:43:32;;;;;;;6.28;3.85;;;;;;;;;;10342721;28;20073;-74
2022/05/20 10:48:45;;;;;;;5.10;3.72;;;;;;;;;;10363213;28;20129;-75
2022/05/20 10:53:53;;;;;;;6.22;3.85;;;;;;;;;;10344577;28;20069;-74
2022/05/20 10:59:09;;;;;;;4.43;3.85;;;;;;;;;;10360637;28;20038;-75
2022/05/20 11:04:26;;;;;;;3.65;3.15;;;;;;;;;;10368563;28;20046;-75
2022/05/20 11:09:33;;;;;;;7.30;3.97;;;;;;;;;;10332770;28;20035;-72
2022/05/20 11:14:57;;;;;;;6.93;3.47;;;;;;;;;;10352931;28;20196;-77
2022/05/20 11:20:08;;;;;;;7.57;3.80;;;;;;;;;;10359269;28;20060;-75
2022/05/20 11:25:14;;;;;;;4.88;3.90;;;;;;;;;;10362786;28;20506;-76
2022/05/20 11:30:28;;;;;;;3.92;3.38;;;;;;;;;;10357329;28;20069;-76
2022/05/20 11:35:42;;;;;;;4.93;3.75;;;;;;;;;;10363374;28;20045;-75
2022/05/20 11:40:56;;;;;;;5.80;2.95;;;;;;;;;;10367778;28;20034;-76
2022/05/20 11:46:08;;;;;;;5.53;3.75;;;;;;;;;;10364520;28;20525;-75
2022/05/20 11:51:19;;;;;;;5.75;3.92;;;;;;;;;;10372798;28;20495;-77
2022/05/20 11:56:25;;;;;;;6.25;3.38;;;;;;;;;;10365696;28;20034;-75
2022/05/20 12:01:31;;;;;;;4.28;3.22;;;;;;;;;;10351092;28;20086;-75
2022/05/20 12:06:35;;;;;;;5.25;3.50;;;;;;;;;;10361507;28;20115;-75
2022/05/20 12:12:02;;;;;;;4.25;3.20;;;;;;;;;;10358163;28;20034;-76
2022/05/20 12:17:07;;;;;;;4.40;3.65;;;;;;;;;;10344175;28;20137;-76
2022/05/20 12:27:38;;;;;;;5.75;3.35;;;;;;;;;;10347721;28;20549;-75
2022/05/20 12:32:52;;;;;;;4.22;3.28;;;;;;;;;;10355363;28;20049;-76
2022/05/20 12:37:58;;;;;;;3.47;2.97;;;;;;;;;;10357761;28;20045;-75
2022/05/20 12:43:09;;;;;;;4.93;3.25;;;;;;;;;;10355385;28;20042;-76
2022/05/20 12:48:14;;;;;;;7.53;3.50;;;;;;;;;;10355916;28;20067;-75
2022/05/20 12:53:17;;;;;;;5.63;3.30;;;;;;;;;;10365416;28;20128;-75
2022/05/20 12:58:23;;;;;;;6.18;2.90;;;;;;;;;;10363571;28;20124;-76
2022/05/20 13:03:30;;;;;;;5.35;3.40;;;;;;;;;;10367194;28;20076;-76
2022/05/20 13:08:45;;;;;;;5.65;3.47;;;;;;;;;;10358840;28;20045;-74
2022/05/20 13:13:51;;;;;;;6.05;3.20;;;;;;;;;;10354073;28;20147;-75
2022/05/20 13:19:01;;;;;;;9.63;3.58;;;;;;;;;;10363155;28;20034;-77
2022/05/20 13:24:12;;;;;;;5.27;3.40;;;;;;;;;;10361125;28;20320;-75
2022/05/20 13:29:17;;;;;;;6.28;3.20;;;;;;;;;;10338955;28;20049;-75
2022/05/20 13:34:22;;;;;;;6.10;3.25;;;;;;;;;;10342149;28;20073;-76
2022/05/20 13:39:25;;;;;;;4.50;2.30;;;;;;;;;;10352632;28;20133;-75
2022/05/20 13:44:28;;;;;;;7.63;3.40;;;;;;;;;;10370053;28;20041;-75
2022/05/20 13:49:34;;;;;;;6.10;2.60;;;;;;;;;;10365040;28;20053;-75
2022/05/20 13:54:39;;;;;;;4.13;2.38;;;;;;;;;;10346899;28;20478;-75
2022/05/20 13:59:43;;;;;;;9.45;3.35;;;;;;;;;;10368726;28;20129;-75
2022/05/20 14:04:53;;;;;;;7.68;2.80;;;;;;;;;;10349010;28;20499;-74
2022/05/20 14:10:00;;;;;;;7.93;3.50;;;;;;;;;;10343702;28;20180;-75
2022/05/20 14:15:05;;;;;;;5.82;2.50;;;;;;;;;;10352064;28;20125;-75
2022/05/20 14:20:12;;;;;;;8.05;3.05;;;;;;;;;;10367355;28;20057;-76
2022/05/20 14:25:19;;;;;;;5.57;2.33;;;;;;;;;;10359079;28;20162;-75
2022/05/20 14:30:28;;;;;;;5.75;2.50;;;;;;;;;;10359437;28;20050;-75
2022/05/20 14:35:35;;;;;;;5.55;3.20;;;;;;;;;;10350581;28;20041;-76
2022/05/20 14:40:40;;;;;;;4.80;2.67;;;;;;;;;;10363551;28;20030;-76
2022/05/20 14:45:50;;;;;;;7.30;2.88;;;;;;;;;;10336924;28;20111;-75
2022/05/20 14:50:55;;;;;;;5.05;2.70;;;;;;;;;;10357535;28;20038;-75
2022/05/20 14:56:00;;;;;;;4.65;2.50;;;;;;;;;;10358453;28;20140;-75
2022/05/20 15:01:05;;;;;;;10.70;2.60;;;;;;;;;;10361844;28;20030;-74
2022/05/20 15:06:13;;;;;;;5.43;2.67;;;;;;;;;;10345199;28;20134;-77
2022/05/20 15:11:17;;;;;;;3.65;2.75;;;;;;;;;;10347421;28;20080;-76
2022/05/20 15:16:20;;;;;;;6.53;3.20;;;;;;;;;;10343894;28;20526;-76
2022/05/20 15:21:26;;;;;;;9.75;3.10;;;;;;;;;;10367300;28;20413;-76
2022/05/20 15:26:30;;;;;;;5.93;3.28;;;;;;;;;;10354484;28;20103;-78
2022/05/20 15:36:59;;;;;;;10.27;3.50;;;;;;;;;;10359584;28;20104;-75
2022/05/20 15:42:02;;;;;;;4.30;2.28;;;;;;;;;;10355742;28;20034;-76
2022/05/20 15:47:07;;;;;;;7.10;3.10;;;;;;;;;;10358914;28;20127;-76
2022/05/20 15:52:12;;;;;;;5.45;3.03;;;;;;;;;;10353399;28;20045;-77
2022/05/20 15:57:16;;;;;;;6.43;3.15;;;;;;;;;;10345002;28;20522;-76
2022/05/20 16:02:20;;;;;;;6.63;3.58;;;;;;;;;;10358268;28;20025;-75
2022/05/20 16:07:25;;;;;;;5.97;3.05;;;;;;;;;;10361414;28;20125;-77
2022/05/20 16:12:29;;;;;;;7.82;3.17;;;;;;;;;;10342651;28;20482;-74
2022/05/20 16:17:33;;;;;;;6.55;3.08;;;;;;;;;;10360950;28;20045;-73
2022/05/20 16:22:39;;;;;;;5.65;3.20;;;;;;;;;;10339916;28;20144;-75
2022/05/20 16:27:44;;;;;;;8.05;3.60;;;;;;;;;;10369190;28;20075;-77
2022/05/20 16:32:47;;;;;;;7.72;3.70;;;;;;;;;;10348780;28;20041;-75
2022/05/20 16:37:51;;;;;;;9.95;3.67;;;;;;;;;;10357897;28;20069;-75
2022/05/20 16:42:54;;;;;;;6.55;3.13;;;;;;;;;;10359553;28;20041;-76
2022/05/20 16:48:00;;;;;;;5.75;3.40;;;;;;;;;;10343674;28;20078;-77
2022/05/20 16:53:05;;;;;;;5.88;3.28;;;;;;;;;;10345563;28;20092;-77
2022/05/20 17:03:29;;;;;;;5.75;3.30;;;;;;;;;;10356763;28;20038;-75
2022/05/20 17:08:36;;;;;;;4.35;3.13;;;;;;;;;;10337553;28;20060;-76
2022/05/20 17:13:43;;;;;;;6.90;3.10;;;;;;;;;;10353036;28;20438;-76
2022/05/20 17:18:46;;;;;;;10.18;3.60;;;;;;;;;;10357781;28;20100;-75
2022/05/20 17:29:06;;;;;;;10.95;5.32;;;;;;;;;;10340950;28;20143;-74
2022/05/20 17:34:09;;;;;;;8.30;3.95;;;;;;;;;;10358916;28;20128;-76
2022/05/20 17:39:14;;;;;;;12.43;6.35;;;;;;;;;;10364580;28;20045;-75
2022/05/20 17:44:17;;;;;;;15.68;4.97;;;;;;;;;;10351752;28;20380;-75
2022/05/20 17:49:20;;;;;;;8.60;3.70;;;;;;;;;;10347389;28;20059;-75
2022/05/20 17:54:25;;;;;;;14.77;4.93;;;;;;;;;;10351157;28;20038;-74
2022/05/20 17:59:28;;;;;;;10.35;4.47;;;;;;;;;;10358968;28;20053;-75
2022/05/20 18:04:30;;;;;;;11.13;4.43;;;;;;;;;;10356411;28;20494;-76
2022/05/20 18:09:35;;;;;;;12.27;6.03;;;;;;;;;;10337397;28;20042;-77
2022/05/20 18:14:38;;;;;;;12.35;5.15;;;;;;;;;;10342207;28;20093;-74
2022/05/20 18:19:41;;;;;;;10.95;4.32;;;;;;;;;;10361457;28;20041;-76
2022/05/20 18:24:47;;;;;;;9.60;4.20;;;;;;;;;;10351723;28;20034;-77
2022/05/20 18:29:50;;;;;;;8.63;3.78;;;;;;;;;;10345021;28;20058;-76
2022/05/20 18:40:16;;;;;;;6.85;3.53;;;;;;;;;;10363258;28;20043;-76
2022/05/20 18:45:20;;;;;;;10.10;3.50;;;;;;;;;;10336013;28;20113;-77
2022/05/20 18:50:24;;;;;;;10.18;3.70;;;;;;;;;;10359803;28;20041;-78
2022/05/20 18:55:29;;;;;;;5.03;3.05;;;;;;;;;;10361920;28;20067;-76
2022/05/20 19:00:34;;;;;;;8.05;3.50;;;;;;;;;;10364767;28;20046;-76
2022/05/20 19:05:37;;;;;;;9.00;3.67;;;;;;;;;;10336344;28;20069;-74
2022/05/20 19:10:42;;;;;;;7.65;3.55;;;;;;;;;;10332780;28;20132;-75
2022/05/20 19:15:45;;;;;;;7.68;4.03;;;;;;;;;;10339744;28;20038;-78
2022/05/20 19:20:48;;;;;;;9.35;4.10;;;;;;;;;;10359170;28;20140;-75
2022/05/20 19:25:53;;;;;;;9.02;3.70;;;;;;;;;;10356135;28;20545;-78
2022/05/20 19:30:57;;;;;;;7.00;3.42;;;;;;;;;;10350912;28;20038;-77
2022/05/20 19:36:00;;;;;;;5.78;3.47;;;;;;;;;;10345287;28;20053;-74
2022/05/20 19:41:04;;;;;;;11.40;3.45;;;;;;;;;;10361975;28;20037;-76
2022/05/20 19:46:08;;;;;;;7.57;3.50;;;;;;;;;;10342828;28;20072;-74
2022/05/20 19:51:11;;;;;;;8.90;3.88;;;;;;;;;;10343651;28;20040;-76
2022/05/20 19:56:16;;;;;;;11.43;3.53;;;;;;;;;;10343585;28;20077;-79
2022/05/20 20:01:20;;;;;;;10.40;4.38;;;;;;;;;;10341738;28;20508;-77
2022/05/20 20:06:22;;;;;;;10.43;3.80;;;;;;;;;;10360635;28;20477;-76
2022/05/20 20:11:25;;;;;;;;;;;;;;;;;;10356871;28;20147;-76
2022/05/20 20:16:29;;;;;;;8.07;3.50;;;;;;;;;;10361746;28;20122;-76
2022/05/20 20:27:13;;;;;;;12.45;5.30;;;;;;;;;;10355979;28;20049;-77
2022/05/20 20:32:15;;;;;;;;;;;;;;;;;;10341895;28;20438;-75
2022/05/20 20:37:20;;;;;;;10.10;3.67;;;;;;;;;;10355164;28;20339;-75
2022/05/20 20:42:30;;;;;;;6.73;2.43;;;;;;;;;;10350613;28;20036;-72
2022/05/20 20:47:35;;;;;;;9.45;3.75;;;;;;;;;;10352570;28;20388;-76
2022/05/20 20:52:39;;;;;;;8.52;3.97;;;;;;;;;;10354574;28;20541;-74
2022/05/20 20:57:43;;;;;;;7.80;3.22;;;;;;;;;;10369197;28;20038;-77
2022/05/20 21:02:46;;;;;;;9.25;3.58;;;;;;;;;;10362885;28;20050;-73
2022/05/20 21:07:51;;;;;;;8.45;3.22;;;;;;;;;;10345317;28;20042;-77
2022/05/20 21:12:54;;;;;;;8.50;3.70;;;;;;;;;;10357175;28;20515;-75
2022/05/20 21:17:57;;;;;;;7.90;3.38;;;;;;;;;;10343851;28;20074;-74
2022/05/20 21:23:01;;;;;;;8.68;3.92;;;;;;;;;;10366030;28;20038;-75
2022/05/20 21:28:05;;;;;;;9.15;3.65;;;;;;;;;;10337355;28;20512;-73
2022/05/20 21:33:08;;;;;;;;;;;;;;;;;;10336121;28;20078;-74
2022/05/20 21:38:12;;;;;;;8.50;3.88;;;;;;;;;;10358391;28;19948;-74
2022/05/20 21:43:16;;;;;;;9.52;3.60;;;;;;;;;;10356162;28;20038;-77
2022/05/20 21:48:20;;;;;;;11.23;3.65;;;;;;;;;;10338519;28;20053;-77
2022/05/20 21:53:24;;;;;;;8.55;2.95;;;;;;;;;;10357643;28;20040;-76
2022/05/20 21:58:27;;;;;;;15.82;3.03;;;;;;;;;;10366898;28;20057;-77
2022/05/20 22:08:53;;;;;;;10.43;3.00;;;;;;;;;;10362169;28;20046;-77
2022/05/20 22:13:56;;;;;;;9.20;2.25;;;;;;;;;;10361123;28;20129;-76
2022/05/20 22:18:59;;;;;;;6.22;2.30;;;;;;;;;;10348350;28;20458;-73
2022/05/20 22:24:02;;;;;;;;;;;;;;;;;;10360638;28;20041;-76
2022/05/20 22:29:07;;;;;;;11.05;3.58;;;;;;;;;;10366818;28;19921;-75
2022/05/20 22:34:11;;;;;;;8.50;3.40;;;;;;;;;;10361111;28;20072;-75
2022/05/20 22:39:14;;;;;;;11.77;3.40;;;;;;;;;;10368026;28;20422;-74
2022/05/20 22:44:18;;;;;;;7.82;3.50;;;;;;;;;;10363038;28;20738;-73
2022/05/20 22:49:21;;;;;;;10.98;3.10;;;;;;;;;;10348524;28;20038;-75
2022/05/20 22:54:24;;;;;;;8.00;3.22;;;;;;;;;;10365171;28;20038;-75
2022/05/20 22:59:28;;;;;;;6.32;3.00;;;;;;;;;;10366595;28;20072;-74
2022/05/20 23:04:33;;;;;;;12.65;3.58;;;;;;;;;;10347252;28;20109;-74
2022/05/20 23:09:37;;;;;;;9.65;3.47;;;;;;;;;;10365039;28;20045;-75
2022/05/20 23:14:41;;;;;;;12.10;3.55;;;;;;;;;;10351002;28;20430;-75
2022/05/20 23:19:44;;;;;;;11.60;3.88;;;;;;;;;;10344132;28;20133;-72
2022/05/20 23:24:47;;;;;;;15.10;3.90;;;;;;;;;;10340996;28;20418;-73
2022/05/20 23:29:52;;;;;;;10.05;3.47;;;;;;;;;;10346844;28;20053;-76
2022/05/20 23:34:55;;;;;;;8.45;4.10;;;;;;;;;;10343237;28;20502;-75
2022/05/20 23:39:58;;;;;;;11.77;3.88;;;;;;;;;;10369090;28;20589;-76
2022/05/20 23:45:02;;;;;;;9.90;4.65;;;;;;;;;;10366559;28;20038;-76
2022/05/20 23:50:06;;;;;;;12.07;4.60;;;;;;;;;;10343678;28;20037;-75
